sensor_id;sensor_type;location;lat;lon;timestamp;pressure;altitude;pressure_sealevel;temperature;humidity
64827;BME280;51265;53.972;12.286;2023-11-19T00:00:58;100509.22;;;3.39;100.00
64827;BME280;51265;53.972;12.286;2023-11-19T00:03:24;100492.56;;;3.35;100.00
64827;BME280;51265;53.972;12.286;2023-11-19T00:05:50;100488.25;;;3.39;100.00
64827;BME280;51265;53.972;12.286;2023-11-19T00:08:16;100481.53;;;3.25;100.00
64827;BME280;51265;53.972;12.286;2023-11-19T00:10:42;100483.69;;;3.23;100.00
64827;BME280;51265;53.972;12.286;2023-11-19T00:13:08;100471.69;;;3.19;100.00
64827;BME280;51265;53.972;12.286;2023-11-19T00:15:36;100474.84;;;3.11;100.00
64827;BME280;51265;53.972;12.286;2023-11-19T00:18:02;100470.22;;;3.11;100.00
64827;BME280;51265;53.972;12.286;2023-11-19T00:20:31;100466.09;;;3.09;100.00
64827;BME280;51265;53.972;12.286;2023-11-19T00:22:57;100468.91;;;3.14;100.00
64827;BME280;51265;53.972;12.286;2023-11-19T00:25:23;100467.75;;;3.10;100.00
64827;BME280;51265;53.972;12.286;2023-11-19T00:27:50;100466.63;;;3.06;100.00
64827;BME280;51265;53.972;12.286;2023-11-19T00:30:17;100468.25;;;3.07;100.00
64827;BME280;51265;53.972;12.286;2023-11-19T00:32:43;100471.69;;;3.19;100.00
64827;BME280;51265;53.972;12.286;2023-11-19T00:35:11;100456.97;;;3.20;100.00
64827;BME280;51265;53.972;12.286;2023-11-19T00:37:39;100442.19;;;3.11;100.00
64827;BME280;51265;53.972;12.286;2023-11-19T00:40:06;100442.50;;;3.14;100.00
64827;BME280;51265;53.972;12.286;2023-11-19T00:42:32;100436.84;;;3.21;100.00
64827;BME280;51265;53.972;12.286;2023-11-19T00:44:59;100427.31;;;3.18;100.00
64827;BME280;51265;53.972;12.286;2023-11-19T00:47:25;100419.34;;;3.12;100.00
64827;BME280;51265;53.972;12.286;2023-11-19T00:49:51;100413.94;;;3.17;100.00
64827;BME280;51265;53.972;12.286;2023-11-19T00:52:17;100412.31;;;3.16;100.00
64827;BME280;51265;53.972;12.286;2023-11-19T00:54:44;100411.22;;;3.17;100.00
64827;BME280;51265;53.972;12.286;2023-11-19T00:57:10;100407.94;;;3.15;100.00
64827;BME280;51265;53.972;12.286;2023-11-19T00:59:36;100390.22;;;3.12;100.00
64827;BME280;51265;53.972;12.286;2023-11-19T01:02:03;100389.34;;;3.07;100.00
64827;BME280;51265;53.972;12.286;2023-11-19T01:04:34;100368.94;;;3.09;100.00
64827;BME280;51265;53.972;12.286;2023-11-19T01:07:05;100356.75;;;3.12;100.00
64827;BME280;51265;53.972;12.286;2023-11-19T01:09:32;100349.03;;;3.04;100.00
64827;BME280;51265;53.972;12.286;2023-11-19T01:12:01;100341.22;;;3.12;100.00
64827;BME280;51265;53.972;12.286;2023-11-19T01:14:28;100331.69;;;3.10;100.00
64827;BME280;51265;53.972;12.286;2023-11-19T01:16:54;100321.28;;;3.02;100.00
64827;BME280;51265;53.972;12.286;2023-11-19T01:19:21;100316.34;;;2.98;100.00
64827;BME280;51265;53.972;12.286;2023-11-19T01:21:49;100318.56;;;3.02;100.00
64827;BME280;51265;53.972;12.286;2023-11-19T01:24:15;100314.13;;;2.95;100.00
64827;BME280;51265;53.972;12.286;2023-11-19T01:26:43;100327.50;;;2.97;100.00
64827;BME280;51265;53.972;12.286;2023-11-19T01:29:12;100325.69;;;3.08;100.00
64827;BME280;51265;53.972;12.286;2023-11-19T01:31:41;100313.03;;;2.96;100.00
64827;BME280;51265;53.972;12.286;2023-11-19T01:34:07;100307.59;;;2.96;100.00
64827;BME280;51265;53.972;12.286;2023-11-19T01:36:34;100309.25;;;2.97;100.00
64827;BME280;51265;53.972;12.286;2023-11-19T01:39:00;100309.13;;;2.87;100.00
64827;BME280;51265;53.972;12.286;2023-11-19T01:41:26;100296.66;;;2.91;100.00
64827;BME280;51265;53.972;12.286;2023-11-19T01:43:53;100299.78;;;2.78;100.00
64827;BME280;51265;53.972;12.286;2023-11-19T01:46:20;100291.69;;;2.83;100.00
64827;BME280;51265;53.972;12.286;2023-11-19T01:48:46;100278.53;;;2.75;100.00
64827;BME280;51265;53.972;12.286;2023-11-19T01:51:13;100274.22;;;2.79;100.00
64827;BME280;51265;53.972;12.286;2023-11-19T01:53:43;100277.78;;;2.80;100.00
64827;BME280;51265;53.972;12.286;2023-11-19T01:56:12;100274.28;;;2.84;100.00
64827;BME280;51265;53.972;12.286;2023-11-19T01:58:40;100261.78;;;2.83;100.00
64827;BME280;51265;53.972;12.286;2023-11-19T02:01:07;100242.72;;;2.83;100.00
64827;BME280;51265;53.972;12.286;2023-11-19T02:03:33;100225.03;;;2.81;100.00
64827;BME280;51265;53.972;12.286;2023-11-19T02:06:01;100223.13;;;2.81;100.00
64827;BME280;51265;53.972;12.286;2023-11-19T02:08:27;100217.06;;;2.74;100.00
64827;BME280;51265;53.972;12.286;2023-11-19T02:10:53;100212.22;;;2.76;100.00
64827;BME280;51265;53.972;12.286;2023-11-19T02:13:24;100200.50;;;2.75;100.00
64827;BME280;51265;53.972;12.286;2023-11-19T02:15:51;100194.19;;;2.70;100.00
64827;BME280;51265;53.972;12.286;2023-11-19T02:18:22;100204.06;;;2.76;100.00
64827;BME280;51265;53.972;12.286;2023-11-19T02:20:52;100183.34;;;2.75;100.00
64827;BME280;51265;53.972;12.286;2023-11-19T02:27:37;100179.09;;;2.84;100.00
64827;BME280;51265;53.972;12.286;2023-11-19T02:30:03;100167.38;;;2.84;100.00
64827;BME280;51265;53.972;12.286;2023-11-19T02:32:32;100164.97;;;2.87;100.00
64827;BME280;51265;53.972;12.286;2023-11-19T02:34:58;100148.66;;;2.87;100.00
64827;BME280;51265;53.972;12.286;2023-11-19T02:37:24;100145.97;;;2.92;100.00
64827;BME280;51265;53.972;12.286;2023-11-19T02:39:50;100145.94;;;2.87;100.00
64827;BME280;51265;53.972;12.286;2023-11-19T02:42:16;100136.75;;;2.93;100.00
64827;BME280;51265;53.972;12.286;2023-11-19T02:44:46;100127.00;;;2.97;100.00
64827;BME280;51265;53.972;12.286;2023-11-19T02:47:12;100116.03;;;2.92;100.00
64827;BME280;51265;53.972;12.286;2023-11-19T02:49:38;100106.84;;;2.93;100.00
64827;BME280;51265;53.972;12.286;2023-11-19T02:52:05;100095.41;;;2.96;100.00
64827;BME280;51265;53.972;12.286;2023-11-19T02:54:32;100093.22;;;2.93;100.00
64827;BME280;51265;53.972;12.286;2023-11-19T02:57:01;100091.56;;;2.92;100.00
64827;BME280;51265;53.972;12.286;2023-11-19T02:59:29;100079.41;;;3.05;100.00
64827;BME280;51265;53.972;12.286;2023-11-19T03:02:05;100067.19;;;3.08;100.00
64827;BME280;51265;53.972;12.286;2023-11-19T03:04:42;100063.38;;;3.09;100.00
64827;BME280;51265;53.972;12.286;2023-11-19T03:07:11;100069.41;;;3.16;100.00
64827;BME280;51265;53.972;12.286;2023-11-19T03:09:39;100054.72;;;3.17;100.00
64827;BME280;51265;53.972;12.286;2023-11-19T03:12:06;100053.38;;;3.14;100.00
64827;BME280;51265;53.972;12.286;2023-11-19T03:14:36;100049.84;;;3.14;100.00
64827;BME280;51265;53.972;12.286;2023-11-19T03:17:02;100043.03;;;3.16;100.00
64827;BME280;51265;53.972;12.286;2023-11-19T03:19:29;100041.09;;;3.12;100.00
64827;BME280;51265;53.972;12.286;2023-11-19T03:21:55;100025.06;;;3.15;100.00
64827;BME280;51265;53.972;12.286;2023-11-19T03:24:21;100027.00;;;3.20;100.00
64827;BME280;51265;53.972;12.286;2023-11-19T03:26:48;100021.25;;;3.16;100.00
64827;BME280;51265;53.972;12.286;2023-11-19T03:29:16;99999.25;;;3.23;100.00
64827;BME280;51265;53.972;12.286;2023-11-19T03:31:42;99995.72;;;3.22;100.00
64827;BME280;51265;53.972;12.286;2023-11-19T03:34:09;99998.72;;;3.26;100.00
64827;BME280;51265;53.972;12.286;2023-11-19T03:36:35;99980.22;;;3.28;100.00
64827;BME280;51265;53.972;12.286;2023-11-19T03:39:01;99982.41;;;3.26;100.00
64827;BME280;51265;53.972;12.286;2023-11-19T03:41:29;99987.28;;;3.29;100.00
64827;BME280;51265;53.972;12.286;2023-11-19T03:43:56;99982.41;;;3.31;100.00
64827;BME280;51265;53.972;12.286;2023-11-19T03:46:22;99978.06;;;3.35;100.00
64827;BME280;51265;53.972;12.286;2023-11-19T03:48:49;99971.84;;;3.40;100.00
64827;BME280;51265;53.972;12.286;2023-11-19T03:51:16;99962.84;;;3.44;100.00
64827;BME280;51265;53.972;12.286;2023-11-19T03:53:44;99962.03;;;3.44;100.00
64827;BME280;51265;53.972;12.286;2023-11-19T03:56:11;99947.09;;;3.52;100.00
64827;BME280;51265;53.972;12.286;2023-11-19T03:58:38;99947.63;;;3.48;100.00
64827;BME280;51265;53.972;12.286;2023-11-19T04:01:05;99937.53;;;3.39;100.00
64827;BME280;51265;53.972;12.286;2023-11-19T04:03:32;99928.84;;;3.47;100.00
64827;BME280;51265;53.972;12.286;2023-11-19T04:05:59;99919.31;;;3.44;100.00
64827;BME280;51265;53.972;12.286;2023-11-19T04:08:25;99923.13;;;3.43;100.00
64827;BME280;51265;53.972;12.286;2023-11-19T04:10:51;99911.38;;;3.38;100.00
64827;BME280;51265;53.972;12.286;2023-11-19T04:13:17;99907.31;;;3.40;100.00
64827;BME280;51265;53.972;12.286;2023-11-19T04:15:43;99907.31;;;3.45;100.00
64827;BME280;51265;53.972;12.286;2023-11-19T04:18:09;99903.50;;;3.41;100.00
64827;BME280;51265;53.972;12.286;2023-11-19T04:20:35;99885.00;;;3.43;100.00
64827;BME280;51265;53.972;12.286;2023-11-19T04:23:02;99869.16;;;3.30;100.00
64827;BME280;51265;53.972;12.286;2023-11-19T04:25:28;99870.81;;;3.31;100.00
64827;BME280;51265;53.972;12.286;2023-11-19T04:27:54;99877.38;;;3.35;100.00
64827;BME280;51265;53.972;12.286;2023-11-19T04:30:21;99890.97;;;3.40;100.00
64827;BME280;51265;53.972;12.286;2023-11-19T04:32:47;99898.06;;;3.41;100.00
64827;BME280;51265;53.972;12.286;2023-11-19T04:35:16;99889.06;;;3.46;100.00
64827;BME280;51265;53.972;12.286;2023-11-19T04:37:42;99888.53;;;3.39;100.00
64827;BME280;51265;53.972;12.286;2023-11-19T04:40:09;99891.25;;;3.39;100.00
64827;BME280;51265;53.972;12.286;2023-11-19T04:42:35;99885.81;;;3.44;100.00
64827;BME280;51265;53.972;12.286;2023-11-19T04:45:01;99863.22;;;3.43;100.00
64827;BME280;51265;53.972;12.286;2023-11-19T04:47:28;99828.09;;;3.42;100.00
64827;BME280;51265;53.972;12.286;2023-11-19T04:49:54;99790.81;;;3.27;100.00
64827;BME280;51265;53.972;12.286;2023-11-19T04:52:20;99787.28;;;3.27;100.00
64827;BME280;51265;53.972;12.286;2023-11-19T04:54:46;99813.66;;;3.26;100.00
64827;BME280;51265;53.972;12.286;2023-11-19T04:57:14;99858.84;;;3.37;100.00
64827;BME280;51265;53.972;12.286;2023-11-19T04:59:40;99896.16;;;3.42;100.00
64827;BME280;51265;53.972;12.286;2023-11-19T05:02:08;99863.50;;;3.47;100.00
64827;BME280;51265;53.972;12.286;2023-11-19T05:04:34;99805.25;;;3.48;100.00
64827;BME280;51265;53.972;12.286;2023-11-19T05:07:01;99782.38;;;3.39;100.00
64827;BME280;51265;53.972;12.286;2023-11-19T05:09:27;99783.16;;;3.34;100.00
64827;BME280;51265;53.972;12.286;2023-11-19T05:11:53;99784.25;;;3.28;100.00
64827;BME280;51265;53.972;12.286;2023-11-19T05:14:19;99770.66;;;3.33;100.00
64827;BME280;51265;53.972;12.286;2023-11-19T05:16:47;99790.25;;;3.40;100.00
64827;BME280;51265;53.972;12.286;2023-11-19T05:19:13;99801.16;;;3.45;100.00
64827;BME280;51265;53.972;12.286;2023-11-19T05:21:42;99808.78;;;3.43;100.00
64827;BME280;51265;53.972;12.286;2023-11-19T05:24:09;99803.34;;;3.48;100.00
64827;BME280;51265;53.972;12.286;2023-11-19T05:26:35;99810.41;;;3.55;100.00
64827;BME280;51265;53.972;12.286;2023-11-19T05:29:01;99826.19;;;3.58;100.00
64827;BME280;51265;53.972;12.286;2023-11-19T05:31:27;99827.31;;;3.57;100.00
64827;BME280;51265;53.972;12.286;2023-11-19T05:33:53;99809.84;;;3.63;100.00
64827;BME280;51265;53.972;12.286;2023-11-19T05:36:20;99801.41;;;3.59;100.00
64827;BME280;51265;53.972;12.286;2023-11-19T05:38:46;99804.13;;;3.54;100.00
64827;BME280;51265;53.972;12.286;2023-11-19T05:41:12;99806.84;;;3.59;100.00
64827;BME280;51265;53.972;12.286;2023-11-19T05:43:38;99802.25;;;3.60;100.00
64827;BME280;51265;53.972;12.286;2023-11-19T05:46:07;99801.41;;;3.59;100.00
64827;BME280;51265;53.972;12.286;2023-11-19T05:48:33;99784.28;;;3.64;100.00
64827;BME280;51265;53.972;12.286;2023-11-19T05:50:59;99777.19;;;3.63;100.00
64827;BME280;51265;53.972;12.286;2023-11-19T05:53:26;99766.84;;;3.55;100.00
64827;BME280;51265;53.972;12.286;2023-11-19T05:55:52;99771.75;;;3.58;100.00
64827;BME280;51265;53.972;12.286;2023-11-19T05:58:26;99739.63;;;3.55;100.00
64827;BME280;51265;53.972;12.286;2023-11-19T06:00:55;99711.31;;;3.50;100.00
64827;BME280;51265;53.972;12.286;2023-11-19T06:03:21;99725.47;;;3.53;100.00
64827;BME280;51265;53.972;12.286;2023-11-19T06:05:48;99753.78;;;3.57;100.00
64827;BME280;51265;53.972;12.286;2023-11-19T06:08:15;99756.75;;;3.55;100.00
64827;BME280;51265;53.972;12.286;2023-11-19T06:10:43;99758.69;;;3.60;100.00
64827;BME280;51265;53.972;12.286;2023-11-19T06:13:15;99739.88;;;3.58;100.00
64827;BME280;51265;53.972;12.286;2023-11-19T06:15:42;99746.44;;;3.52;100.00
64827;BME280;51265;53.972;12.286;2023-11-19T06:18:09;99714.59;;;3.53;100.00
64827;BME280;51265;53.972;12.286;2023-11-19T06:20:35;99688.47;;;3.52;100.00
64827;BME280;51265;53.972;12.286;2023-11-19T06:23:02;99690.91;;;3.48;100.00
64827;BME280;51265;53.972;12.286;2023-11-19T06:25:28;99687.91;;;3.49;100.00
64827;BME280;51265;53.972;12.286;2023-11-19T06:27:54;99692.25;;;3.56;100.00
64827;BME280;51265;53.972;12.286;2023-11-19T06:30:20;99684.38;;;3.49;100.00
64827;BME280;51265;53.972;12.286;2023-11-19T06:32:46;99675.94;;;3.45;100.00
64827;BME280;51265;53.972;12.286;2023-11-19T06:35:13;99685.19;;;3.44;100.00
64827;BME280;51265;53.972;12.286;2023-11-19T06:37:40;99677.81;;;3.50;100.00
64827;BME280;51265;53.972;12.286;2023-11-19T06:40:07;99686.81;;;3.50;100.00
64827;BME280;51265;53.972;12.286;2023-11-19T06:42:35;99678.38;;;3.57;100.00
64827;BME280;51265;53.972;12.286;2023-11-19T06:45:02;99687.84;;;3.70;100.00
64827;BME280;51265;53.972;12.286;2023-11-19T06:47:29;99679.16;;;3.68;100.00
64827;BME280;51265;53.972;12.286;2023-11-19T06:49:56;99685.16;;;3.65;100.00
64827;BME280;51265;53.972;12.286;2023-11-19T06:52:22;99686.22;;;3.69;100.00
64827;BME280;51265;53.972;12.286;2023-11-19T06:54:48;99684.84;;;3.71;100.00
64827;BME280;51265;53.972;12.286;2023-11-19T06:57:15;99685.94;;;3.75;100.00
64827;BME280;51265;53.972;12.286;2023-11-19T06:59:42;99693.81;;;3.87;100.00
64827;BME280;51265;53.972;12.286;2023-11-19T07:02:08;99694.31;;;3.99;100.00
64827;BME280;51265;53.972;12.286;2023-11-19T07:04:34;99700.84;;;4.04;100.00
64827;BME280;51265;53.972;12.286;2023-11-19T07:07:01;99712.81;;;4.08;100.00
64827;BME280;51265;53.972;12.286;2023-11-19T07:09:27;99721.50;;;4.15;100.00
64827;BME280;51265;53.972;12.286;2023-11-19T07:11:53;99713.03;;;4.21;100.00
64827;BME280;51265;53.972;12.286;2023-11-19T07:14:20;99696.66;;;4.21;100.00
64827;BME280;51265;53.972;12.286;2023-11-19T07:16:46;99695.94;;;4.06;100.00
64827;BME280;51265;53.972;12.286;2023-11-19T07:19:12;99682.28;;;4.11;100.00
64827;BME280;51265;53.972;12.286;2023-11-19T07:21:41;99689.88;;;4.19;100.00
64827;BME280;51265;53.972;12.286;2023-11-19T07:24:10;99689.88;;;4.19;100.00
64827;BME280;51265;53.972;12.286;2023-11-19T07:26:43;99692.88;;;4.17;100.00
64827;BME280;51265;53.972;12.286;2023-11-19T07:29:10;99693.09;;;4.31;100.00
64827;BME280;51265;53.972;12.286;2023-11-19T07:31:36;99680.00;;;4.33;100.00
64827;BME280;51265;53.972;12.286;2023-11-19T07:34:03;99676.97;;;4.40;100.00
64827;BME280;51265;53.972;12.286;2023-11-19T07:36:29;99677.78;;;4.40;100.00
64827;BME280;51265;53.972;12.286;2023-11-19T07:38:56;99663.88;;;4.37;100.00
64827;BME280;51265;53.972;12.286;2023-11-19T07:41:23;99647.28;;;4.33;100.00
64827;BME280;51265;53.972;12.286;2023-11-19T07:43:51;99656.59;;;4.22;100.00
64827;BME280;51265;53.972;12.286;2023-11-19T07:46:18;99669.66;;;4.25;100.00
64827;BME280;51265;53.972;12.286;2023-11-19T07:48:47;99682.75;;;4.28;100.00
64827;BME280;51265;53.972;12.286;2023-11-19T07:51:14;99686.00;;;4.30;100.00
64827;BME280;51265;53.972;12.286;2023-11-19T07:53:41;99687.91;;;4.35;100.00
64827;BME280;51265;53.972;12.286;2023-11-19T07:56:08;99685.97;;;4.40;100.00
64827;BME280;51265;53.972;12.286;2023-11-19T07:58:34;99675.66;;;4.27;100.00
64827;BME280;51265;53.972;12.286;2023-11-19T08:01:00;99674.53;;;4.33;100.00
64827;BME280;51265;53.972;12.286;2023-11-19T08:03:28;99675.59;;;4.37;100.00
64827;BME280;51265;53.972;12.286;2023-11-19T08:05:56;99672.03;;;4.42;100.00
64827;BME280;51265;53.972;12.286;2023-11-19T08:08:25;99668.47;;;4.46;100.00
64827;BME280;51265;53.972;12.286;2023-11-19T08:10:51;99659.22;;;4.42;100.00
64827;BME280;51265;53.972;12.286;2023-11-19T08:13:18;99658.41;;;4.42;100.00
64827;BME280;51265;53.972;12.286;2023-11-19T08:15:46;99643.97;;;4.41;100.00
64827;BME280;51265;53.972;12.286;2023-11-19T08:18:13;99633.13;;;4.31;100.00
64827;BME280;51265;53.972;12.286;2023-11-19T08:20:39;99624.97;;;4.26;100.00
64827;BME280;51265;53.972;12.286;2023-11-19T08:23:05;99629.81;;;4.34;100.00
64827;BME280;51265;53.972;12.286;2023-11-19T08:25:32;99633.09;;;4.36;100.00
64827;BME280;51265;53.972;12.286;2023-11-19T08:27:59;99635.81;;;4.36;100.00
64827;BME280;51265;53.972;12.286;2023-11-19T08:30:26;99630.31;;;4.41;100.00
64827;BME280;51265;53.972;12.286;2023-11-19T08:32:53;99629.22;;;4.42;100.00
64827;BME280;51265;53.972;12.286;2023-11-19T08:35:19;99626.84;;;4.36;100.00
64827;BME280;51265;53.972;12.286;2023-11-19T08:37:45;99614.00;;;4.36;100.00
64827;BME280;51265;53.972;12.286;2023-11-19T08:40:12;99612.88;;;4.42;100.00
64827;BME280;51265;53.972;12.286;2023-11-19T08:42:40;99599.22;;;4.47;100.00
64827;BME280;51265;53.972;12.286;2023-11-19T08:45:07;99595.38;;;4.48;100.00
64827;BME280;51265;53.972;12.286;2023-11-19T08:47:37;99590.44;;;4.56;100.00
64827;BME280;51265;53.972;12.286;2023-11-19T08:50:03;99589.34;;;4.57;100.00
64827;BME280;51265;53.972;12.286;2023-11-19T08:52:30;99588.72;;;4.65;100.00
64827;BME280;51265;53.972;12.286;2023-11-19T08:54:57;99582.72;;;4.63;100.00
64827;BME280;51265;53.972;12.286;2023-11-19T08:57:23;99571.31;;;4.61;100.00
64827;BME280;51265;53.972;12.286;2023-11-19T08:59:49;99584.66;;;4.62;100.00
64827;BME280;51265;53.972;12.286;2023-11-19T09:02:15;99576.16;;;4.64;100.00
64827;BME280;51265;53.972;12.286;2023-11-19T09:04:42;99573.97;;;4.66;100.00
64827;BME280;51265;53.972;12.286;2023-11-19T09:07:08;99569.59;;;4.70;100.00
64827;BME280;51265;53.972;12.286;2023-11-19T09:09:37;99577.81;;;4.65;100.00
64827;BME280;51265;53.972;12.286;2023-11-19T09:12:04;99572.94;;;4.62;100.00
64827;BME280;51265;53.972;12.286;2023-11-19T09:14:30;99571.25;;;4.66;100.00
64827;BME280;51265;53.972;12.286;2023-11-19T09:16:57;99568.78;;;4.69;100.00
64827;BME280;51265;53.972;12.286;2023-11-19T09:19:24;99569.88;;;4.68;100.00
64827;BME280;51265;53.972;12.286;2023-11-19T09:21:53;99576.66;;;4.71;100.00
64827;BME280;51265;53.972;12.286;2023-11-19T09:24:19;99571.22;;;4.71;100.00
64827;BME280;51265;53.972;12.286;2023-11-19T09:26:45;99574.13;;;4.80;100.00
64827;BME280;51265;53.972;12.286;2023-11-19T09:29:11;99569.72;;;4.84;100.00
64827;BME280;51265;53.972;12.286;2023-11-19T09:31:40;99573.81;;;4.86;100.00
64827;BME280;51265;53.972;12.286;2023-11-19T09:34:06;99558.25;;;4.87;100.00
64827;BME280;51265;53.972;12.286;2023-11-19T09:36:32;99552.22;;;4.90;100.00
64827;BME280;51265;53.972;12.286;2023-11-19T09:38:58;99549.22;;;4.91;100.00
64827;BME280;51265;53.972;12.286;2023-11-19T09:41:26;99555.66;;;5.00;100.00
64827;BME280;51265;53.972;12.286;2023-11-19T09:43:53;99553.97;;;5.05;100.00
64827;BME280;51265;53.972;12.286;2023-11-19T09:46:20;99545.72;;;5.15;100.00
64827;BME280;51265;53.972;12.286;2023-11-19T09:48:47;99549.50;;;5.19;100.00
64827;BME280;51265;53.972;12.286;2023-11-19T09:51:14;99554.88;;;5.24;100.00
64827;BME280;51265;53.972;12.286;2023-11-19T09:53:41;99565.41;;;5.36;100.00
64827;BME280;51265;53.972;12.286;2023-11-19T09:56:07;99561.25;;;5.43;100.00
64827;BME280;51265;53.972;12.286;2023-11-19T09:58:34;99554.59;;;5.49;100.00
64827;BME280;51265;53.972;12.286;2023-11-19T10:01:00;99559.13;;;5.59;100.00
64827;BME280;51265;53.972;12.286;2023-11-19T10:03:35;99564.25;;;5.66;100.00
64827;BME280;51265;53.972;12.286;2023-11-19T10:06:06;99565.22;;;5.75;100.00
64827;BME280;51265;53.972;12.286;2023-11-19T10:08:33;99558.06;;;5.79;100.00
64827;BME280;51265;53.972;12.286;2023-11-19T10:11:00;99553.63;;;5.83;100.00
64827;BME280;51265;53.972;12.286;2023-11-19T10:13:26;99561.66;;;5.74;100.00
64827;BME280;51265;53.972;12.286;2023-11-19T10:15:55;99551.19;;;5.82;100.00
64827;BME280;51265;53.972;12.286;2023-11-19T10:18:27;99546.69;;;5.91;100.00
64827;BME280;51265;53.972;12.286;2023-11-19T10:20:54;99552.94;;;5.96;100.00
64827;BME280;51265;53.972;12.286;2023-11-19T10:23:21;99551.25;;;6.01;100.00
64827;BME280;51265;53.972;12.286;2023-11-19T10:25:47;99550.50;;;6.14;100.00
64827;BME280;51265;53.972;12.286;2023-11-19T10:28:16;99542.16;;;6.24;100.00
64827;BME280;51265;53.972;12.286;2023-11-19T10:30:42;99536.13;;;6.27;100.00
64827;BME280;51265;53.972;12.286;2023-11-19T10:33:11;99534.31;;;6.36;100.00
64827;BME280;51265;53.972;12.286;2023-11-19T10:36:09;99540.88;;;6.54;100.00
64827;BME280;51265;53.972;12.286;2023-11-19T10:38:35;99541.72;;;6.68;100.00
64827;BME280;51265;53.972;12.286;2023-11-19T10:41:02;99539.09;;;6.77;100.00
64827;BME280;51265;53.972;12.286;2023-11-19T10:43:29;99540.56;;;6.88;100.00
64827;BME280;51265;53.972;12.286;2023-11-19T10:46:09;99530.97;;;7.05;100.00
64827;BME280;51265;53.972;12.286;2023-11-19T10:48:35;99545.47;;;7.19;100.00
64827;BME280;51265;53.972;12.286;2023-11-19T10:51:05;99524.41;;;7.33;100.00
64827;BME280;51265;53.972;12.286;2023-11-19T10:53:33;99533.94;;;7.49;100.00
64827;BME280;51265;53.972;12.286;2023-11-19T10:56:02;99531.88;;;7.69;100.00
64827;BME280;51265;53.972;12.286;2023-11-19T10:58:32;99541.81;;;7.92;100.00
64827;BME280;51265;53.972;12.286;2023-11-19T11:01:02;99542.41;;;8.03;100.00
64827;BME280;51265;53.972;12.286;2023-11-19T11:03:37;99539.38;;;8.27;100.00
64827;BME280;51265;53.972;12.286;2023-11-19T11:06:05;99540.59;;;8.48;100.00
64827;BME280;51265;53.972;12.286;2023-11-19T11:08:32;99536.56;;;8.55;100.00
64827;BME280;51265;53.972;12.286;2023-11-19T11:11:03;99531.81;;;8.69;100.00
64827;BME280;51265;53.972;12.286;2023-11-19T11:13:31;99527.72;;;8.80;100.00
64827;BME280;51265;53.972;12.286;2023-11-19T11:15:58;99534.25;;;8.93;100.00
64827;BME280;51265;53.972;12.286;2023-11-19T11:18:24;99520.69;;;8.96;100.00
64827;BME280;51265;53.972;12.286;2023-11-19T11:20:54;99526.09;;;9.10;100.00
64827;BME280;51265;53.972;12.286;2023-11-19T11:23:35;99524.38;;;9.23;100.00
64827;BME280;51265;53.972;12.286;2023-11-19T11:26:20;99523.97;;;9.38;100.00
64827;BME280;51265;53.972;12.286;2023-11-19T11:29:01;99514.28;;;9.41;100.00
64827;BME280;51265;53.972;12.286;2023-11-19T11:31:52;99522.88;;;9.57;100.00
64827;BME280;51265;53.972;12.286;2023-11-19T11:34:34;99528.09;;;9.67;100.00
64827;BME280;51265;53.972;12.286;2023-11-19T11:39:35;99521.81;;;9.75;100.00
64827;BME280;51265;53.972;12.286;2023-11-19T11:44:59;99518.13;;;9.88;100.00
64827;BME280;51265;53.972;12.286;2023-11-19T11:50:14;99520.88;;;9.97;100.00
64827;BME280;51265;53.972;12.286;2023-11-19T11:55:52;99518.13;;;10.06;100.00
64827;BME280;51265;53.972;12.286;2023-11-19T11:58:20;99506.66;;;10.12;100.00
64827;BME280;51265;53.972;12.286;2023-11-19T12:00:47;99515.59;;;10.27;100.00
64827;BME280;51265;53.972;12.286;2023-11-19T12:03:15;99508.47;;;10.34;100.00
64827;BME280;51265;53.972;12.286;2023-11-19T12:05:45;99506.66;;;10.21;100.00
64827;BME280;51265;53.972;12.286;2023-11-19T12:08:13;99509.25;;;10.09;100.00
64827;BME280;51265;53.972;12.286;2023-11-19T12:10:51;99506.84;;;10.16;100.00
64827;BME280;51265;53.972;12.286;2023-11-19T12:13:19;99497.72;;;9.89;100.00
64827;BME280;51265;53.972;12.286;2023-11-19T12:18:30;99502.59;;;9.92;100.00
64827;BME280;51265;53.972;12.286;2023-11-19T12:20:57;99506.97;;;10.02;100.00
64827;BME280;51265;53.972;12.286;2023-11-19T12:23:29;99513.44;;;10.06;100.00
64827;BME280;51265;53.972;12.286;2023-11-19T12:25:56;99516.38;;;10.18;100.00
64827;BME280;51265;53.972;12.286;2023-11-19T12:28:23;99523.03;;;10.26;100.00
64827;BME280;51265;53.972;12.286;2023-11-19T12:30:52;99513.34;;;10.37;100.00
64827;BME280;51265;53.972;12.286;2023-11-19T12:33:19;99527.22;;;10.32;100.00
64827;BME280;51265;53.972;12.286;2023-11-19T12:35:47;99520.44;;;10.21;100.00
64827;BME280;51265;53.972;12.286;2023-11-19T12:38:22;99520.09;;;10.14;100.00
64827;BME280;51265;53.972;12.286;2023-11-19T12:41:09;99523.19;;;10.21;100.00
64827;BME280;51265;53.972;12.286;2023-11-19T12:43:40;99515.56;;;10.09;100.00
64827;BME280;51265;53.972;12.286;2023-11-19T12:46:22;99524.00;;;10.30;100.00
64827;BME280;51265;53.972;12.286;2023-11-19T12:48:49;99518.81;;;10.20;100.00
64827;BME280;51265;53.972;12.286;2023-11-19T12:51:15;99525.44;;;10.19;100.00
64827;BME280;51265;53.972;12.286;2023-11-19T12:53:49;99519.63;;;10.20;100.00
64827;BME280;51265;53.972;12.286;2023-11-19T12:56:16;99517.66;;;10.21;100.00
64827;BME280;51265;53.972;12.286;2023-11-19T12:58:42;99517.34;;;10.14;100.00
64827;BME280;51265;53.972;12.286;2023-11-19T13:01:09;99518.47;;;10.13;100.00
64827;BME280;51265;53.972;12.286;2023-11-19T13:03:38;99524.59;;;10.01;100.00
64827;BME280;51265;53.972;12.286;2023-11-19T13:06:09;99525.06;;;10.03;100.00